KSAC/SAC METAR and TAF weather

Enter ICAO airport designator
Station Type Date Time Source
KSAC METAR 2019/08/18 09:53 UTC NOAA

KSAC 180953Z 20010KT 10SM CLR 16/12 A2977 RMK AO2 SLP081 T01560122


Station Type Date Time Source
KSAC Decoded METAR 2019/08/18 09:53 UTC NOAA

Station name not available
Aug 18, 2019 - 05:53 AM EDT / 2019.08.18 0953 UTC
Wind: from the SSW (200 degrees) at 12 MPH (10 KT):0
Visibility: 10 mile(s):0
Sky conditions: clear
Temperature: 60.1 F (15.6 C)
Dew Point: 54.0 F (12.2 C)
Relative Humidity: 80%
Pressure (altimeter): 29.77 in. Hg (1008 hPa)
ob: KSAC 180953Z 20010KT 10SM CLR 16/12 A2977 RMK AO2 SLP081 T01560122
cycle: 10

Station Type Date Time Source
KSAC TAF 2019/08/18 06:27 UTC NOAA

TAF KSAC 180524Z 1806/1906 20010G19KT P6SM SKC

Example: see airport list